Saint Augustine, IL (61474)

9:12 PM CST on December 05, 2016 (GMT -0600)
N9WRG | | Change Station

Elev 682 ft 40.82 °N, 90.31 °W | Updated 12 seconds ago

Overcast
Overcast
35.9 °F
Feels Like 33 °F
N
4.0
Wind Variable Wind from ESE
Gusts 4.0 mph

Today
High -- | Low -- °F
--% Chance of Precip.
Yesterday
High -- | Low -- °F
Precip. -- in
Pressure 29.87 in
Visibility 7.0 miles
Clouds Overcast 900 ft
Windchill 33 °F
Dew Point 34 °F
Humidity 92%
Rainfall 0.23 in
Snow Depth Not available.
7:10 AM 4:34 PM
Waxing Crescent, 37% visible
METAR KGBG 060255Z AUTO 12007KT 7SM OVC009 01/00 A2987 RMK AO2 T00100001
Pressure 29.87 in
Visibility 7.0 miles
Clouds Overcast 900 ft
Windchill 33 °F
Dew Point 34 °F
Humidity 92%
Rainfall 0.23 in
Snow Depth Not available.
7:10 AM 4:34 PM
Waxing Crescent, 37% visible
METAR KGBG 060255Z AUTO 12007KT 7SM OVC009 01/00 A2987 RMK AO2 T00100001

10-Day Weather Forecast

Almanac

Astronomy

Dec. 05, 2016 Rise Set
Actual Time
Civil Twilight
Nautical Twilight
Astronomical Twilight
Moon
Length of Visible Light
Length of Day
Tomorrow will be .
, % of the Moon is Illuminated

Today's Extremes

State Highs State Lows

Community

WunderPhotos

Upload Photos

1,955,900 photos uploaded!

WunderBlog® & News

Nearby

Air Quality

  Air Quality AQ Index Pollutant
Not available.

Snow Depth

Station Depth Elevation

Earthquake Activity

City Distance Mag. Time & Date
Minimum magnitude displayed is 2.5.

Coastal Water Temperatures

Place Temperature

Stations

Nearby Weather Stations

Station Location Temp. Windchill Dew Point Humidity Wind Precip. Elev Updated Type
                   

Watches & Warnings

There are currently no watches in effect.